Kalam Weather



Kalam's Current Weather

Temprature -11.14o overcast clouds

overcast clouds

Rain: 0 %

Min Temprature-11.14o
Max Temprature-11.14o
Humidity73
Wind Speed0.29 m/h
Sun Rise07:13:22
Sun Set17:30:53
Current Time: 27-Jan-2020 18:26:27
Lat/Lon: 35.48, 72.58




Kalam's Geo Location



Kalam's Weather Forecast

Time Overall Temp Min Temp Max Temp Humidity Wind Speed Rain
27-Jan-2020 (Mon)
20:00:00 broken clouds -15.460 -15.460 -15.460 73 3.4 m/h 0 %
23:00:00 broken clouds -15.930 -15.930 -15.930 66 3.28 m/h 0 %
28-Jan-2020 (Tue)
02:00:00 overcast clouds -16.050 -16.050 -16.050 62 3.88 m/h 0 %
05:00:00 overcast clouds -17.110 -17.110 -17.110 58 4.04 m/h 0 %
08:00:00 scattered clouds -16.460 -16.460 -16.460 58 4.11 m/h 0 %
11:00:00 scattered clouds -7.520 -7.520 -7.520 52 1.74 m/h 0 %
14:00:00 broken clouds -5.710 -5.710 -5.710 48 1.29 m/h 0 %
17:00:00 broken clouds -9.590 -9.590 -9.590 76 1.31 m/h 0 %
20:00:00 overcast clouds -12.450 -12.450 -12.450 70 2.86 m/h 0 %
23:00:00 overcast clouds -13.640 -13.640 -13.640 61 2.59 m/h 0 %
29-Jan-2020 (Wed)
02:00:00 overcast clouds -13.090 -13.090 -13.090 61 3.06 m/h 0 %
05:00:00 overcast clouds -14.250 -14.250 -14.250 61 2.79 m/h 0 %
08:00:00 overcast clouds -12.180 -12.180 -12.180 79 2.12 m/h 0 %
11:00:00 light snow -7.470 -7.470 -7.470 80 1.46 m/h 0 %
14:00:00 light snow -5.880 -5.880 -5.880 91 3.01 m/h 0 %
17:00:00 snow -8.830 -8.830 -8.830 97 1.39 m/h 0 %
20:00:00 light snow -10.200 -10.200 -10.200 96 1.14 m/h 0 %
23:00:00 light snow -14.730 -14.730 -14.730 79 2.99 m/h 0 %
30-Jan-2020 (Thu)
02:00:00 clear sky -15.880 -15.880 -15.880 71 2.99 m/h 0 %
05:00:00 clear sky -16.300 -16.300 -16.300 68 2.97 m/h 0 %
08:00:00 clear sky -15.020 -15.020 -15.020 69 3.14 m/h 0 %
11:00:00 clear sky -6.990 -6.990 -6.990 66 0.9 m/h 0 %
14:00:00 light snow -5.640 -5.640 -5.640 70 2.1 m/h 0 %
17:00:00 light snow -9.030 -9.030 -9.030 94 1.77 m/h 0 %
20:00:00 light snow -13.330 -13.330 -13.330 94 1.98 m/h 0 %
23:00:00 light snow -13.970 -13.970 -13.970 82 2.59 m/h 0 %
31-Jan-2020 (Fri)
02:00:00 overcast clouds -14.550 -14.550 -14.550 76 2.67 m/h 0 %
05:00:00 overcast clouds -15.010 -15.010 -15.010 73 2.84 m/h 0 %
08:00:00 overcast clouds -14.000 -14.000 -14.000 72 2.69 m/h 0 %
11:00:00 overcast clouds -7.850 -7.850 -7.850 57 0.91 m/h 0 %
14:00:00 light snow -6.960 -6.960 -6.960 66 1.71 m/h 0 %
17:00:00 light snow -10.650 -10.650 -10.650 85 1.14 m/h 0 %
20:00:00 overcast clouds -15.010 -15.010 -15.010 81 3.07 m/h 0 %
23:00:00 scattered clouds -16.720 -16.720 -16.720 68 3.27 m/h 0 %
01-Feb-2020 (Sat)
02:00:00 clear sky -17.160 -17.160 -17.160 64 3.48 m/h 0 %
05:00:00 clear sky -17.350 -17.350 -17.350 60 3.61 m/h 0 %
08:00:00 clear sky -16.160 -16.160 -16.160 58 3.65 m/h 0 %
11:00:00 clear sky -7.520 -7.520 -7.520 54 1.51 m/h 0 %
14:00:00 clear sky -5.560 -5.560 -5.560 58 1.82 m/h 0 %
17:00:00 scattered clouds -9.950 -9.950 -9.950 82 1.28 m/h 0 %

Famous Cities (61)